Time;durP1;ratioP1;P1;durP2;ratioP2;P2;SDS_P1;SDS_P2;PMS_P1;PMS_P2;Temp;Humidity;BMP_temperature;BMP_pressure;BME280_temperature;BME280_humidity;BME280_pressure;Samples;Min_cycle;Max_cycle;Signal;HPM_P1;HPM_P2
2021/11/05 00:00:09;;;;;;;14.65;9.88;;;8.90;99.90;;;;;;5014195;28;20038;-79
2021/11/05 00:02:35;;;;;;;16.35;10.43;;;8.90;99.90;;;;;;5030109;28;20120;-79
2021/11/05 00:05:01;;;;;;;13.23;9.07;;;8.90;99.90;;;;;;5022940;28;20108;-79
2021/11/05 00:07:26;;;;;;;13.02;9.18;;;8.90;99.90;;;;;;5026485;28;20048;-80
2021/11/05 00:09:52;;;;;;;12.45;9.40;;;8.90;99.90;;;;;;5039206;28;20025;-79
2021/11/05 00:12:17;;;;;;;13.93;8.65;;;8.90;99.90;;;;;;5028870;28;20033;-78
2021/11/05 00:14:43;;;;;;;12.90;9.15;;;8.90;99.90;;;;;;5031278;28;20037;-79
2021/11/05 00:17:09;;;;;;;12.90;8.95;;;8.90;99.90;;;;;;5033126;28;20072;-78
2021/11/05 00:19:34;;;;;;;14.10;8.52;;;8.90;99.90;;;;;;5029714;28;20056;-79
2021/11/05 00:22:00;;;;;;;12.30;8.45;;;8.90;99.90;;;;;;5023276;28;20037;-79
2021/11/05 00:24:26;;;;;;;11.50;8.15;;;8.90;99.90;;;;;;5021856;28;20041;-79
2021/11/05 00:26:51;;;;;;;18.52;9.18;;;8.90;99.90;;;;;;5032407;28;20049;-79
2021/11/05 00:29:17;;;;;;;11.35;8.43;;;8.90;99.90;;;;;;5026409;28;20447;-79
2021/11/05 00:31:42;;;;;;;13.00;8.10;;;8.90;99.90;;;;;;5027005;28;20038;-79
2021/11/05 00:34:08;;;;;;;13.38;8.70;;;8.90;99.90;;;;;;5015577;28;20038;-78
2021/11/05 00:36:33;;;;;;;13.27;8.65;;;8.90;99.90;;;;;;5019150;28;20592;-79
2021/11/05 00:38:59;;;;;;;12.20;7.70;;;8.90;99.90;;;;;;5023929;28;20422;-80
2021/11/05 00:41:24;;;;;;;12.82;7.80;;;8.90;99.90;;;;;;5033839;28;20065;-79
2021/11/05 00:43:50;;;;;;;12.60;8.30;;;8.90;99.90;;;;;;5015563;28;20454;-79
2021/11/05 00:46:16;;;;;;;17.98;8.68;;;8.90;99.90;;;;;;5012085;28;20026;-80
2021/11/05 00:48:41;;;;;;;13.65;8.20;;;8.80;99.90;;;;;;5030106;28;20481;-79
2021/11/05 00:51:07;;;;;;;12.85;8.63;;;8.90;99.90;;;;;;5030514;28;20025;-80
2021/11/05 00:53:32;;;;;;;10.18;6.85;;;8.90;99.90;;;;;;5025218;28;20378;-80
2021/11/05 00:55:58;;;;;;;12.57;8.35;;;8.90;99.90;;;;;;5019403;28;20041;-79
2021/11/05 00:58:23;;;;;;;16.80;8.63;;;8.90;99.90;;;;;;5041645;28;20033;-78
2021/11/05 01:00:49;;;;;;;14.15;8.45;;;8.90;99.90;;;;;;5026187;28;20108;-78
2021/11/05 01:03:15;;;;;;;15.43;9.18;;;8.80;99.90;;;;;;5028744;28;20033;-80
2021/11/05 01:05:40;;;;;;;16.02;9.77;;;8.80;99.90;;;;;;5019493;28;20033;-77
2021/11/05 01:08:07;;;;;;;15.50;9.27;;;8.90;99.90;;;;;;5019665;28;20545;-80
2021/11/05 01:10:37;;;;;;;15.73;9.10;;;8.80;99.90;;;;;;5030677;28;20026;-78
2021/11/05 01:13:04;;;;;;;14.13;8.98;;;8.70;99.90;;;;;;5033158;28;20065;-80
2021/11/05 01:15:30;;;;;;;14.68;9.05;;;8.70;99.90;;;;;;5029877;28;20040;-78
2021/11/05 01:17:55;;;;;;;13.93;8.48;;;8.80;99.90;;;;;;5020120;28;20022;-80
2021/11/05 01:20:20;;;;;;;16.30;9.07;;;8.80;99.90;;;;;;5030374;28;20037;-80
2021/11/05 01:22:46;;;;;;;16.05;9.23;;;8.80;99.90;;;;;;5027585;28;20038;-78
2021/11/05 01:25:13;;;;;;;16.33;9.73;;;8.80;99.90;;;;;;5030396;28;20609;-78
2021/11/05 01:27:41;;;;;;;19.40;9.23;;;8.80;99.90;;;;;;5050452;28;20112;-79
2021/11/05 01:30:07;;;;;;;15.85;9.85;;;8.80;99.90;;;;;;5039551;28;20033;-78
2021/11/05 01:32:33;;;;;;;17.73;10.48;;;8.80;99.90;;;;;;5027219;28;20409;-79
2021/11/05 01:34:58;;;;;;;16.70;9.85;;;8.80;99.90;;;;;;5021090;28;20103;-77
2021/11/05 01:37:24;;;;;;;17.42;9.88;;;8.80;99.90;;;;;;5016521;28;20034;-79
2021/11/05 01:39:49;;;;;;;15.73;9.30;;;8.90;99.90;;;;;;5013862;28;20029;-77
2021/11/05 01:42:15;;;;;;;16.90;10.23;;;8.90;99.90;;;;;;5021927;28;20030;-79
2021/11/05 01:44:41;;;;;;;20.52;10.13;;;8.90;99.90;;;;;;5020990;28;20411;-78
2021/11/05 01:47:06;;;;;;;19.05;10.52;;;8.90;99.90;;;;;;5019136;28;20091;-78
2021/11/05 01:49:32;;;;;;;15.45;10.18;;;8.90;99.90;;;;;;5014860;28;20025;-78
2021/11/05 01:51:57;;;;;;;15.02;9.50;;;8.90;99.90;;;;;;5019375;28;20033;-78
2021/11/05 01:54:24;;;;;;;18.08;11.50;;;8.80;99.90;;;;;;5026094;28;20537;-80
2021/11/05 01:56:50;;;;;;;20.83;11.68;;;8.70;99.90;;;;;;5010900;28;20045;-80
2021/11/05 01:59:31;;;;;;;18.20;10.50;;;8.70;99.90;;;;;;5009506;28;20021;-80
2021/11/05 02:02:00;;;;;;;18.70;10.68;;;8.70;99.90;;;;;;5019361;28;20091;-80
2021/11/05 02:04:26;;;;;;;18.98;11.25;;;8.80;99.90;;;;;;5021075;28;20037;-78
2021/11/05 02:06:53;;;;;;;18.90;9.77;;;8.80;99.90;;;;;;5011403;28;20394;-77
2021/11/05 02:09:22;;;;;;;18.88;11.18;;;8.80;99.90;;;;;;5021426;28;20103;-79
2021/11/05 02:11:49;;;;;;;19.10;10.20;;;8.90;99.90;;;;;;5016180;28;20150;-77
2021/11/05 02:14:19;;;;;;;17.98;11.00;;;8.80;99.90;;;;;;5015377;28;20113;-77
2021/11/05 02:16:47;;;;;;;18.45;10.20;;;8.80;99.90;;;;;;5020682;28;20069;-78
2021/11/05 02:19:16;;;;;;;18.20;10.88;;;8.80;99.90;;;;;;5030675;28;20033;-79
2021/11/05 02:21:43;;;;;;;19.17;11.23;;;8.80;99.90;;;;;;5019397;28;20038;-78
2021/11/05 02:24:09;;;;;;;19.70;11.27;;;8.90;99.90;;;;;;5024650;28;20052;-77
2021/11/05 02:26:35;;;;;;;21.48;11.57;;;8.90;99.90;;;;;;5023104;28;20044;-79
2021/11/05 02:29:00;;;;;;;20.20;11.18;;;8.90;99.90;;;;;;5028053;28;20037;-78
2021/11/05 02:31:26;;;;;;;16.77;10.13;;;8.90;99.90;;;;;;5038896;28;20514;-78
2021/11/05 02:33:52;;;;;;;17.65;9.63;;;8.80;99.90;;;;;;5027033;28;20029;-77
2021/11/05 02:36:18;;;;;;;18.95;10.13;;;8.80;99.90;;;;;;5018383;28;20025;-78
2021/11/05 02:38:43;;;;;;;14.80;9.27;;;8.80;99.90;;;;;;5031066;28;20060;-78
2021/11/05 02:41:09;;;;;;;16.35;9.80;;;8.80;99.90;;;;;;5023938;28;20033;-78
2021/11/05 02:43:34;;;;;;;19.55;10.55;;;8.80;99.90;;;;;;5028681;28;20056;-78
2021/11/05 02:46:00;;;;;;;21.20;9.20;;;8.80;99.90;;;;;;5025311;28;20073;-80
2021/11/05 02:48:30;;;;;;;19.48;9.98;;;8.80;99.90;;;;;;5025850;28;20112;-77
2021/11/05 02:50:56;;;;;;;14.32;9.60;;;8.80;99.90;;;;;;5029016;28;20034;-78
2021/11/05 02:53:21;;;;;;;17.33;10.00;;;8.80;99.90;;;;;;5027872;28;20030;-77
2021/11/05 02:55:47;;;;;;;22.00;10.68;;;8.80;99.90;;;;;;5028231;28;20042;-78
2021/11/05 02:58:13;;;;;;;17.85;9.50;;;8.90;99.90;;;;;;5019282;28;20037;-78
2021/11/05 03:00:42;;;;;;;19.40;9.93;;;8.80;99.90;;;;;;5033914;28;20371;-78
2021/11/05 03:03:08;;;;;;;14.55;9.25;;;8.90;99.90;;;;;;5037631;28;20053;-78
2021/11/05 03:05:34;;;;;;;16.95;8.63;;;8.80;99.90;;;;;;5030869;28;20076;-79
2021/11/05 03:07:59;;;;;;;14.40;8.80;;;8.80;99.90;;;;;;5024273;28;20474;-78
2021/11/05 03:10:25;;;;;;;14.65;9.02;;;8.90;99.90;;;;;;5024462;28;20026;-79
2021/11/05 03:12:50;;;;;;;16.73;9.65;;;8.90;99.90;;;;;;5026873;28;20076;-79
2021/11/05 03:15:16;;;;;;;16.98;9.52;;;8.90;99.90;;;;;;5021252;28;20044;-78
2021/11/05 03:17:42;;;;;;;17.05;9.95;;;8.90;99.90;;;;;;5025783;28;20233;-78
2021/11/05 03:20:10;;;;;;;18.00;10.50;;;8.90;99.90;;;;;;5025831;28;20432;-77
2021/11/05 03:22:35;;;;;;;15.65;9.27;;;8.90;99.90;;;;;;5023017;28;20044;-76
2021/11/05 03:25:01;;;;;;;21.88;9.98;;;8.90;99.90;;;;;;5019933;28;20470;-77
2021/11/05 03:27:27;;;;;;;17.92;10.77;;;8.90;99.90;;;;;;5029812;28;20432;-76
2021/11/05 03:29:52;;;;;;;15.88;10.25;;;9.00;99.90;;;;;;5031802;28;20029;-77
2021/11/05 03:32:18;;;;;;;15.15;9.40;;;9.00;99.90;;;;;;5031864;28;20045;-76
2021/11/05 03:34:44;;;;;;;18.95;9.35;;;9.00;99.90;;;;;;5033707;28;20079;-78
2021/11/05 03:37:09;;;;;;;21.13;11.95;;;9.00;99.90;;;;;;5030444;28;20083;-76
2021/11/05 03:39:35;;;;;;;17.83;10.75;;;9.00;99.90;;;;;;5030662;28;20025;-77
2021/11/05 03:42:01;;;;;;;19.50;10.35;;;9.00;99.90;;;;;;5021829;28;20034;-77
2021/11/05 03:44:27;;;;;;;16.30;10.40;;;9.00;99.90;;;;;;5021228;28;20037;-77
2021/11/05 03:46:53;;;;;;;22.02;9.98;;;9.00;99.90;;;;;;5026327;28;20076;-76
2021/11/05 03:49:19;;;;;;;20.10;10.68;;;9.00;99.90;;;;;;5024616;28;20038;-78
2021/11/05 03:51:44;;;;;;;24.52;11.00;;;8.90;99.90;;;;;;5031011;28;20044;-76
2021/11/05 03:54:10;;;;;;;18.10;10.40;;;8.90;99.90;;;;;;5025292;28;20496;-78
2021/11/05 03:56:35;;;;;;;17.30;10.63;;;9.00;99.90;;;;;;5031133;28;20032;-78
2021/11/05 03:59:01;;;;;;;18.20;11.35;;;9.00;99.90;;;;;;5032014;28;20033;-77
2021/11/05 04:01:27;;;;;;;20.40;11.35;;;9.00;99.90;;;;;;5029504;28;20041;-78
2021/11/05 04:03:53;;;;;;;18.67;11.02;;;9.00;99.90;;;;;;5028706;28;20627;-77
2021/11/05 04:06:20;;;;;;;20.83;11.30;;;8.90;99.90;;;;;;5031694;28;20067;-77
2021/11/05 04:08:46;;;;;;;20.42;12.05;;;8.90;99.90;;;;;;5017433;28;20474;-78
2021/11/05 04:11:12;;;;;;;21.58;11.90;;;8.80;99.90;;;;;;5028706;28;20053;-78
2021/11/05 04:13:38;;;;;;;18.00;9.88;;;8.80;99.90;;;;;;5023602;28;20034;-78
2021/11/05 04:16:04;;;;;;;14.68;8.77;;;8.80;99.90;;;;;;5020250;28;20029;-79
2021/11/05 04:18:29;;;;;;;10.02;6.85;;;8.80;99.90;;;;;;5020002;28;20100;-77
2021/11/05 04:20:55;;;;;;;7.30;5.68;;;8.80;99.90;;;;;;5023977;28;20576;-77
2021/11/05 04:23:20;;;;;;;9.23;5.85;;;8.70;99.90;;;;;;5014355;28;20141;-77
2021/11/05 04:25:47;;;;;;;7.60;5.13;;;8.70;99.90;;;;;;5022540;28;20037;-78
2021/11/05 04:28:13;;;;;;;6.55;4.65;;;8.70;99.90;;;;;;5030189;28;20091;-78
2021/11/05 04:30:38;;;;;;;5.68;3.97;;;8.70;99.90;;;;;;5012017;28;20034;-79
2021/11/05 04:33:04;;;;;;;4.50;3.65;;;8.70;99.90;;;;;;5022953;28;20110;-78
2021/11/05 04:35:30;;;;;;;5.53;3.83;;;8.70;99.90;;;;;;5023828;28;20638;-76
2021/11/05 04:37:56;;;;;;;7.68;3.58;;;8.60;99.90;;;;;;5026480;28;20105;-80
2021/11/05 04:40:21;;;;;;;5.18;3.67;;;8.70;99.90;;;;;;5025670;28;20064;-77
2021/11/05 04:42:47;;;;;;;5.10;3.65;;;8.70;99.90;;;;;;5018220;28;20387;-77
2021/11/05 04:45:13;;;;;;;5.13;4.20;;;8.70;99.90;;;;;;5016141;28;20032;-79
2021/11/05 04:47:38;;;;;;;6.15;4.20;;;8.70;99.90;;;;;;5030214;28;20057;-77
2021/11/05 04:50:05;;;;;;;4.47;3.75;;;8.70;99.90;;;;;;5026312;28;20093;-76
2021/11/05 04:52:30;;;;;;;5.00;3.28;;;8.80;99.90;;;;;;5018594;28;20155;-76
2021/11/05 04:54:56;;;;;;;4.30;3.75;;;8.80;99.90;;;;;;5017860;28;20125;-76
2021/11/05 04:57:21;;;;;;;5.85;3.63;;;8.80;99.90;;;;;;5028923;28;20486;-76
2021/11/05 04:59:47;;;;;;;6.03;3.75;;;8.80;99.90;;;;;;5032565;28;20033;-77
2021/11/05 05:02:12;;;;;;;6.32;4.45;;;8.80;99.90;;;;;;5020481;28;20491;-76
2021/11/05 05:04:38;;;;;;;6.15;4.28;;;8.80;99.90;;;;;;5035335;28;20044;-78
2021/11/05 05:07:04;;;;;;;6.38;3.83;;;8.80;99.90;;;;;;5015051;28;20048;-78
2021/11/05 05:09:29;;;;;;;7.50;5.22;;;8.80;99.90;;;;;;5025442;28;20521;-77
2021/11/05 05:11:55;;;;;;;7.43;4.32;;;8.80;99.90;;;;;;5024905;28;20501;-78
2021/11/05 05:14:20;;;;;;;5.85;4.60;;;8.80;99.90;;;;;;5028329;28;20037;-76
2021/11/05 05:16:46;;;;;;;6.00;5.13;;;8.70;99.90;;;;;;5025903;28;20025;-77
2021/11/05 05:19:11;;;;;;;6.57;4.88;;;8.70;99.90;;;;;;5034682;28;20140;-77
2021/11/05 05:21:37;;;;;;;7.28;5.03;;;8.70;99.90;;;;;;5027684;28;20030;-77
2021/11/05 05:24:03;;;;;;;7.53;4.82;;;8.70;99.90;;;;;;5029262;28;20041;-78
2021/11/05 05:26:29;;;;;;;11.05;6.28;;;8.80;99.90;;;;;;5025203;28;20041;-77
2021/11/05 05:28:54;;;;;;;8.35;6.20;;;8.80;99.90;;;;;;5026079;28;20036;-78
2021/11/05 05:31:20;;;;;;;8.68;5.90;;;8.80;99.90;;;;;;5020062;28;20056;-77
2021/11/05 05:33:45;;;;;;;10.68;6.80;;;8.90;99.90;;;;;;5021027;28;20042;-77
2021/11/05 05:36:11;;;;;;;9.27;6.70;;;8.90;99.90;;;;;;5020646;28;20033;-77
2021/11/05 05:38:37;;;;;;;15.35;8.27;;;8.90;99.90;;;;;;5020046;28;20039;-79
2021/11/05 05:41:04;;;;;;;11.60;7.50;;;8.90;99.90;;;;;;5027113;28;20088;-78
2021/11/05 05:43:29;;;;;;;12.40;7.50;;;8.90;99.90;;;;;;5028286;28;20644;-78
2021/11/05 05:45:55;;;;;;;12.02;7.85;;;8.90;99.90;;;;;;5027688;28;20062;-80
2021/11/05 05:48:21;;;;;;;15.00;8.48;;;8.90;99.90;;;;;;5028473;28;20036;-77
2021/11/05 05:50:47;;;;;;;10.48;7.50;;;8.90;99.90;;;;;;5026054;28;20022;-77
2021/11/05 05:53:12;;;;;;;11.57;8.10;;;8.90;99.90;;;;;;5025332;28;20041;-79
2021/11/05 05:55:39;;;;;;;13.38;7.90;;;8.90;99.90;;;;;;5025982;28;20367;-79
2021/11/05 05:58:05;;;;;;;12.48;7.78;;;8.90;99.90;;;;;;5008776;28;20054;-77
2021/11/05 06:00:32;;;;;;;12.88;7.72;;;8.90;99.90;;;;;;5026778;28;20033;-79
2021/11/05 06:02:58;;;;;;;11.88;7.35;;;8.90;99.90;;;;;;5029550;28;20484;-77
2021/11/05 06:05:24;;;;;;;12.13;8.05;;;8.90;99.90;;;;;;5014066;28;20040;-76
2021/11/05 06:07:49;;;;;;;12.48;7.75;;;8.90;99.90;;;;;;5008969;28;20113;-78
2021/11/05 06:10:15;;;;;;;14.95;6.72;;;8.90;99.90;;;;;;5018516;28;20053;-80
2021/11/05 06:12:40;;;;;;;11.57;7.78;;;8.90;99.90;;;;;;5028454;28;20099;-78
2021/11/05 06:15:06;;;;;;;11.45;7.38;;;8.90;99.90;;;;;;5009398;28;20564;-78
2021/11/05 06:17:33;;;;;;;11.93;7.72;;;8.90;99.90;;;;;;5021219;28;20037;-78
2021/11/05 06:19:58;;;;;;;11.38;7.60;;;8.80;99.90;;;;;;5029449;28;20025;-77
2021/11/05 06:22:24;;;;;;;14.32;8.05;;;8.80;99.90;;;;;;5027965;28;20037;-78
2021/11/05 06:24:49;;;;;;;12.45;7.95;;;8.80;99.90;;;;;;5029702;28;20463;-76
2021/11/05 06:27:15;;;;;;;12.10;7.30;;;8.80;99.90;;;;;;5027807;28;20033;-76
2021/11/05 06:29:40;;;;;;;11.70;7.43;;;8.80;99.90;;;;;;5028881;28;20519;-77
2021/11/05 06:32:06;;;;;;;9.25;6.80;;;8.80;99.90;;;;;;5028206;28;20045;-77
2021/11/05 06:34:32;;;;;;;11.15;6.90;;;8.80;99.90;;;;;;5029190;28;20026;-78
2021/11/05 06:36:57;;;;;;;10.95;6.88;;;8.80;99.90;;;;;;5029610;28;20079;-80
2021/11/05 06:39:24;;;;;;;9.60;7.43;;;8.80;99.90;;;;;;5028732;28;20398;-77
2021/11/05 06:41:50;;;;;;;11.13;7.63;;;8.80;99.90;;;;;;5029015;28;20036;-77
2021/11/05 06:44:15;;;;;;;10.18;7.60;;;8.80;99.90;;;;;;5028902;28;20117;-77
2021/11/05 06:46:41;;;;;;;11.93;7.85;;;8.90;99.90;;;;;;5029454;28;20497;-78
2021/11/05 06:49:06;;;;;;;11.27;7.47;;;8.80;99.90;;;;;;5028264;28;20104;-77
2021/11/05 06:51:32;;;;;;;12.90;7.85;;;8.90;99.90;;;;;;5024355;28;20589;-80
2021/11/05 06:53:57;;;;;;;11.30;7.38;;;8.90;99.90;;;;;;5011608;28;20036;-78
2021/11/05 06:56:23;;;;;;;10.88;7.30;;;8.90;99.90;;;;;;5024210;28;20680;-76
2021/11/05 06:58:50;;;;;;;12.07;8.20;;;8.90;99.90;;;;;;5009944;28;20045;-77
2021/11/05 07:01:16;;;;;;;11.30;7.25;;;9.00;99.90;;;;;;5026817;28;20367;-77
2021/11/05 07:03:41;;;;;;;11.88;7.90;;;9.00;99.90;;;;;;5016427;28;20033;-77
2021/11/05 07:06:07;;;;;;;10.77;7.38;;;9.00;99.90;;;;;;5019090;28;20087;-77
2021/11/05 07:08:32;;;;;;;10.73;7.18;;;9.00;99.90;;;;;;5008298;28;20084;-80
2021/11/05 07:11:00;;;;;;;14.52;8.20;;;9.00;99.90;;;;;;5017522;28;20037;-78
2021/11/05 07:13:25;;;;;;;10.48;6.80;;;9.10;99.90;;;;;;5015490;28;20064;-78
2021/11/05 07:15:52;;;;;;;11.48;7.55;;;9.10;99.90;;;;;;5013841;28;20065;-77
2021/11/05 07:18:18;;;;;;;10.57;7.28;;;9.10;99.90;;;;;;5022094;28;20036;-77
2021/11/05 07:20:44;;;;;;;10.00;7.47;;;9.10;99.90;;;;;;5007750;28;20117;-77
2021/11/05 07:23:12;;;;;;;11.02;7.55;;;9.10;99.90;;;;;;5017747;28;20037;-77
2021/11/05 07:25:38;;;;;;;10.60;7.15;;;9.00;99.90;;;;;;5024161;28;20032;-76
2021/11/05 07:28:03;;;;;;;10.63;6.28;;;9.10;99.90;;;;;;5020881;28;20037;-76
2021/11/05 07:30:30;;;;;;;12.02;7.78;;;9.10;99.90;;;;;;5007574;28;20378;-76
2021/11/05 07:32:56;;;;;;;13.18;7.47;;;9.00;99.90;;;;;;5024012;28;20029;-80
2021/11/05 07:35:22;;;;;;;9.70;6.30;;;9.10;99.90;;;;;;5008478;28;20441;-76
2021/11/05 07:37:48;;;;;;;12.43;7.72;;;9.10;99.90;;;;;;5011213;28;20044;-77
2021/11/05 07:40:15;;;;;;;10.30;6.75;;;9.10;99.90;;;;;;5027062;28;20546;-77
2021/11/05 07:42:43;;;;;;;10.02;7.30;;;9.20;99.90;;;;;;5014867;28;20030;-77
2021/11/05 07:45:10;;;;;;;10.55;7.15;;;9.20;99.90;;;;;;5016160;28;20049;-78
2021/11/05 07:47:37;;;;;;;12.95;7.63;;;9.20;99.90;;;;;;5030015;28;20519;-77
2021/11/05 07:50:05;;;;;;;9.40;6.10;;;9.20;99.90;;;;;;5026629;28;20120;-78
2021/11/05 07:52:31;;;;;;;9.57;6.75;;;9.20;99.90;;;;;;5030012;28;20033;-78
2021/11/05 07:54:56;;;;;;;10.30;7.15;;;9.20;99.90;;;;;;5014038;28;20034;-80
2021/11/05 07:57:22;;;;;;;9.30;6.70;;;9.30;99.90;;;;;;5031181;28;20033;-78
2021/11/05 07:59:48;;;;;;;9.32;6.10;;;9.20;99.90;;;;;;5028629;28;20038;-78
2021/11/05 08:02:14;;;;;;;11.68;7.95;;;9.20;99.90;;;;;;5030089;28;20053;-77
2021/11/05 08:04:40;;;;;;;11.95;6.85;;;9.20;99.90;;;;;;5015407;28;20915;-77
2021/11/05 08:07:06;;;;;;;8.25;6.07;;;9.20;99.90;;;;;;5028876;28;20044;-77
2021/11/05 08:09:31;;;;;;;11.30;7.40;;;9.20;99.90;;;;;;5022402;28;20034;-77
2021/11/05 08:11:57;;;;;;;9.77;7.00;;;9.20;99.90;;;;;;5021528;28;20051;-79
2021/11/05 08:14:23;;;;;;;9.93;6.97;;;9.20;99.90;;;;;;5023599;28;20034;-78
2021/11/05 08:16:48;;;;;;;7.72;6.10;;;9.20;99.90;;;;;;5026549;28;20116;-78
2021/11/05 08:19:14;;;;;;;9.50;7.03;;;9.20;99.90;;;;;;5029789;28;20048;-78
2021/11/05 08:21:39;;;;;;;10.55;7.03;;;9.20;99.90;;;;;;5022243;28;20046;-78
2021/11/05 08:24:06;;;;;;;8.52;6.18;;;9.20;99.90;;;;;;5031669;28;20426;-78
2021/11/05 08:26:32;;;;;;;7.18;5.53;;;9.20;99.90;;;;;;5011420;28;20057;-78
2021/11/05 08:28:59;;;;;;;8.32;5.82;;;9.20;99.90;;;;;;5010892;28;20030;-79
2021/11/05 08:31:25;;;;;;;7.93;5.25;;;9.20;99.90;;;;;;5024538;28;20050;-78
2021/11/05 08:33:52;;;;;;;10.32;6.35;;;9.20;99.90;;;;;;5024831;28;20212;-78
2021/11/05 08:36:21;;;;;;;9.15;5.45;;;9.30;99.90;;;;;;5015942;28;20099;-78
2021/11/05 08:38:46;;;;;;;10.75;6.05;;;9.30;99.90;;;;;;5028310;28;20034;-80
2021/11/05 08:41:16;;;;;;;10.90;6.38;;;9.30;99.90;;;;;;5019180;28;20367;-79
2021/11/05 08:43:48;;;;;;;7.30;5.07;;;9.30;99.90;;;;;;5017816;28;20041;-81
2021/11/05 08:46:17;;;;;;;8.10;6.00;;;9.30;99.90;;;;;;5028461;28;20041;-79
2021/11/05 08:48:51;;;;;;;8.90;6.45;;;9.30;99.90;;;;;;5022275;28;20033;-79
2021/11/05 08:51:17;;;;;;;8.57;6.15;;;9.40;99.90;;;;;;5009301;28;20022;-80
2021/11/05 08:53:42;;;;;;;9.75;6.28;;;9.40;99.90;;;;;;5025527;28;20036;-80
2021/11/05 08:56:08;;;;;;;9.70;6.50;;;9.40;99.90;;;;;;5016767;28;20104;-81
2021/11/05 08:58:35;;;;;;;8.85;5.97;;;9.40;99.90;;;;;;5025842;28;20037;-79
2021/11/05 09:01:01;;;;;;;9.15;6.53;;;9.40;99.90;;;;;;5015018;28;20795;-79
2021/11/05 09:03:27;;;;;;;8.05;5.70;;;9.40;99.90;;;;;;5026543;28;20036;-81
2021/11/05 09:05:53;;;;;;;8.18;5.60;;;9.40;99.90;;;;;;5030434;28;20047;-80
2021/11/05 09:08:18;;;;;;;8.57;6.00;;;9.40;99.90;;;;;;5027900;28;20124;-80
2021/11/05 09:10:43;;;;;;;7.80;5.68;;;9.50;99.90;;;;;;5029163;28;20460;-80
2021/11/05 09:13:09;;;;;;;7.80;5.95;;;9.50;99.90;;;;;;5028398;28;20040;-79
2021/11/05 09:15:35;;;;;;;8.68;6.13;;;9.50;99.90;;;;;;5018238;28;20402;-82
2021/11/05 09:18:07;;;;;;;10.18;6.10;;;9.50;99.90;;;;;;5025034;28;20137;-81
2021/11/05 09:20:33;;;;;;;8.63;5.97;;;9.50;99.90;;;;;;5029425;28;20559;-81
2021/11/05 09:22:59;;;;;;;8.63;6.15;;;9.40;99.90;;;;;;5028239;28;20037;-80
2021/11/05 09:25:25;;;;;;;7.47;5.15;;;9.40;99.90;;;;;;5021333;28;20034;-80
2021/11/05 09:27:51;;;;;;;7.38;5.63;;;9.40;99.90;;;;;;5012701;28;20040;-78
2021/11/05 09:30:19;;;;;;;10.07;5.70;;;9.40;99.90;;;;;;5035847;28;20025;-80
2021/11/05 09:32:45;;;;;;;9.48;5.40;;;9.40;99.90;;;;;;5017422;28;20263;-80
2021/11/05 09:35:10;;;;;;;8.20;5.43;;;9.50;99.90;;;;;;5026092;28;20491;-78
2021/11/05 09:37:37;;;;;;;9.32;5.75;;;9.50;99.90;;;;;;5029299;28;20120;-80
2021/11/05 09:40:06;;;;;;;10.93;5.65;;;9.60;99.90;;;;;;5027662;28;20482;-79
2021/11/05 09:42:31;;;;;;;9.88;6.53;;;9.60;99.90;;;;;;5026694;28;20049;-81
2021/11/05 09:44:58;;;;;;;9.30;6.43;;;9.70;99.90;;;;;;5026851;28;20474;-80
2021/11/05 09:47:26;;;;;;;7.95;6.18;;;9.70;99.90;;;;;;5016021;28;20479;-79
2021/11/05 09:49:52;;;;;;;9.02;5.88;;;9.70;99.90;;;;;;5028458;28;20029;-82
2021/11/05 09:52:17;;;;;;;11.80;6.50;;;9.80;99.90;;;;;;5028233;28;20149;-81
2021/11/05 09:54:47;;;;;;;11.95;7.78;;;9.90;99.90;;;;;;5010579;28;20029;-79
2021/11/05 09:57:13;;;;;;;11.48;7.47;;;9.90;99.90;;;;;;5009643;28;20026;-80
2021/11/05 09:59:38;;;;;;;11.88;6.97;;;9.90;99.90;;;;;;5008524;28;20034;-79
2021/11/05 10:02:04;;;;;;;8.75;6.25;;;10.00;99.90;;;;;;5035630;28;20140;-80
2021/11/05 10:04:31;;;;;;;9.05;6.28;;;10.00;99.90;;;;;;5027220;28;20022;-79
2021/11/05 10:07:06;;;;;;;9.85;7.03;;;10.10;99.90;;;;;;5016493;28;20033;-78
2021/11/05 10:09:36;;;;;;;8.00;6.45;;;10.10;99.90;;;;;;5028135;28;20025;-79
2021/11/05 10:12:24;;;;;;;9.60;6.40;;;10.10;99.90;;;;;;5027886;28;20031;-79
2021/11/05 10:15:08;;;;;;;9.65;6.38;;;10.20;99.90;;;;;;5023922;28;20032;-80
2021/11/05 10:17:35;;;;;;;10.00;6.03;;;10.20;99.90;;;;;;5028304;28;20025;-78
2021/11/05 10:20:05;;;;;;;11.38;6.40;;;10.30;99.90;;;;;;5027773;28;20025;-79
2021/11/05 10:22:50;;;;;;;6.72;5.53;;;10.30;99.90;;;;;;5023948;28;20033;-78
2021/11/05 10:25:23;;;;;;;8.23;5.47;;;10.40;99.90;;;;;;5028052;28;20029;-79
2021/11/05 10:28:04;;;;;;;6.45;5.03;;;10.40;99.90;;;;;;5026888;28;20030;-80
2021/11/05 10:30:30;;;;;;;7.35;5.18;;;10.50;99.90;;;;;;5026441;28;20083;-78
2021/11/05 10:32:58;;;;;;;7.20;5.30;;;10.40;99.90;;;;;;5028423;28;20029;-78
2021/11/05 10:35:24;;;;;;;6.82;5.20;;;10.50;99.90;;;;;;5027773;28;20153;-79
2021/11/05 10:38:03;;;;;;;8.30;6.00;;;10.60;99.90;;;;;;5026803;28;20052;-81
2021/11/05 10:41:05;;;;;;;7.40;5.05;;;10.60;99.90;;;;;;5016850;28;20401;-78
2021/11/05 10:43:33;;;;;;;7.72;5.60;;;10.60;99.90;;;;;;5026476;28;20440;-78
2021/11/05 10:45:59;;;;;;;8.60;6.20;;;10.70;99.90;;;;;;5027791;28;20047;-79
2021/11/05 10:48:28;;;;;;;7.28;5.43;;;10.60;99.90;;;;;;5027789;28;20026;-81
2021/11/05 10:50:57;;;;;;;9.25;5.85;;;10.60;99.90;;;;;;5027822;28;20146;-79
2021/11/05 10:53:25;;;;;;;12.20;6.30;;;10.60;99.90;;;;;;5026801;28;20025;-79
2021/11/05 10:55:58;;;;;;;8.95;6.22;;;10.70;99.90;;;;;;5028920;28;20534;-79
2021/11/05 10:58:28;;;;;;;9.57;6.50;;;10.70;99.90;;;;;;5025675;28;20025;-78
2021/11/05 11:00:58;;;;;;;8.30;6.00;;;10.60;99.90;;;;;;5027302;28;20026;-78
2021/11/05 11:03:41;;;;;;;7.82;6.60;;;10.60;99.90;;;;;;5028326;28;20071;-79
2021/11/05 11:06:18;;;;;;;13.50;6.97;;;10.60;99.90;;;;;;5026652;28;20025;-79
2021/11/05 11:08:46;;;;;;;9.57;6.72;;;10.60;99.90;;;;;;5027713;28;20033;-78
2021/11/05 11:11:24;;;;;;;13.05;8.68;;;10.50;99.90;;;;;;5027532;28;20030;-81
2021/11/05 11:13:56;;;;;;;10.93;7.03;;;10.50;99.90;;;;;;5035935;28;20111;-81
2021/11/05 11:16:25;;;;;;;11.88;8.65;;;10.50;99.90;;;;;;5026075;28;20068;-81
2021/11/05 11:19:03;;;;;;;11.30;7.82;;;10.60;99.90;;;;;;5023169;28;20537;-80
2021/11/05 11:21:32;;;;;;;11.05;7.53;;;10.60;99.90;;;;;;5031470;28;20037;-80
2021/11/05 11:23:58;;;;;;;11.80;8.23;;;10.60;99.90;;;;;;5027722;28;20018;-80
2021/11/05 11:26:24;;;;;;;10.55;8.23;;;10.70;99.90;;;;;;5011477;28;20376;-79
2021/11/05 11:28:50;;;;;;;12.50;8.00;;;10.70;99.90;;;;;;5021821;28;20045;-80
2021/11/05 11:31:17;;;;;;;15.82;7.90;;;10.80;99.90;;;;;;5019937;28;20108;-81
2021/11/05 11:33:43;;;;;;;11.30;7.97;;;10.70;99.90;;;;;;5031489;28;20074;-79
2021/11/05 11:36:11;;;;;;;11.35;8.18;;;10.70;99.90;;;;;;5032569;28;20092;-79
2021/11/05 11:38:37;;;;;;;13.07;8.88;;;10.60;99.90;;;;;;5045886;28;20486;-79
2021/11/05 11:41:07;;;;;;;10.85;7.65;;;10.60;99.90;;;;;;5018715;28;20040;-79
2021/11/05 11:43:33;;;;;;;11.63;8.00;;;10.70;99.90;;;;;;5031230;28;20033;-80
2021/11/05 11:46:00;;;;;;;12.65;8.48;;;10.70;99.90;;;;;;5030248;28;20042;-79
2021/11/05 11:48:49;;;;;;;12.60;8.57;;;10.70;99.90;;;;;;5030355;28;20421;-78
2021/11/05 11:51:17;;;;;;;12.73;8.93;;;10.80;99.90;;;;;;5031029;28;20030;-80
2021/11/05 11:53:42;;;;;;;10.73;8.20;;;10.90;99.90;;;;;;5025940;28;20034;-79
2021/11/05 11:56:08;;;;;;;12.82;8.00;;;11.00;99.90;;;;;;5025530;28;20536;-79
2021/11/05 11:58:33;;;;;;;13.45;8.90;;;11.00;99.90;;;;;;5034322;28;20029;-82
2021/11/05 12:01:20;;;;;;;11.32;8.73;;;11.10;99.90;;;;;;5028844;28;20030;-81
2021/11/05 12:04:04;;;;;;;11.50;8.27;;;11.20;99.90;;;;;;5041530;28;20029;-80
2021/11/05 12:06:56;;;;;;;11.07;8.27;;;11.30;99.90;;;;;;5024881;28;20457;-79
2021/11/05 12:09:39;;;;;;;11.13;8.35;;;11.30;99.90;;;;;;5026887;28;20025;-79
2021/11/05 12:12:20;;;;;;;10.25;7.85;;;11.30;99.90;;;;;;5032311;28;20064;-78
2021/11/05 12:15:00;;;;;;;11.27;8.75;;;11.30;99.70;;;;;;5027703;28;20179;-79
2021/11/05 12:17:51;;;;;;;10.45;7.93;;;11.30;99.80;;;;;;5024571;28;20482;-78
2021/11/05 12:20:37;;;;;;;11.50;8.23;;;11.20;99.70;;;;;;5028630;28;20098;-80
2021/11/05 12:23:09;;;;;;;9.43;7.78;;;11.00;99.90;;;;;;5037779;28;20037;-80
2021/11/05 12:25:47;;;;;;;11.52;8.07;;;11.00;99.90;;;;;;5017532;28;20032;-79
2021/11/05 12:28:18;;;;;;;16.75;8.38;;;11.10;99.90;;;;;;5029356;28;20048;-79
2021/11/05 12:30:46;;;;;;;13.52;8.52;;;11.20;99.60;;;;;;5017858;28;20037;-79
2021/11/05 12:33:23;;;;;;;12.55;8.00;;;11.20;99.60;;;;;;5015575;28;20029;-77
2021/11/05 12:35:51;;;;;;;12.00;7.45;;;11.20;99.60;;;;;;5017167;28;20030;-79
2021/11/05 12:38:16;;;;;;;13.27;8.27;;;11.20;99.90;;;;;;5040004;28;20083;-80
2021/11/05 12:40:45;;;;;;;10.20;7.80;;;11.30;99.90;;;;;;5028050;28;20320;-78
2021/11/05 12:43:13;;;;;;;13.25;8.63;;;11.30;99.40;;;;;;5015588;28;20092;-79
2021/11/05 12:45:48;;;;;;;11.32;8.18;;;11.30;99.70;;;;;;5026469;28;20172;-80